Wa Airport

DGLW · Upper West, 加纳

METAR DGLW · Wa Airport

17 六月 06:00 LT
48m
使用的METAR站距离机场384 km。
罗盘
风向 的 风向 160° Wa Airport 3/21
风: 2 kt, 1 beaufort

2 kt

1 kt
改变
0 ft 1.000 2.000 3.000 4.000 5.000
Cloud Cloud Cloud Cloud Cloud Cloud Cloud Cloud
OVC 1.000
METAR DIBK 170600Z 16002KT 8000 OVC010 23/23 Q1014 NOSIG

METAR Wa Airport - DGLW

Wa Airport是,加纳中的小机场。 该机场位于纬度10,08258和经度-2,50786。 该机场有一条跑道: 3/21. 本场的ICAO机场代码为DGLW。 机场在Dakar FIR中。

该航空气象观测是针对Bouaké Airport在2024年6月17日 06:00, 当地时间进行的。

机场观察

风向为160°,速度为2 kt。

可见度为8 km。

有乌云密布在1.000 ft的高度。 破损或更高的上限为1.000 ft。

温度和风寒是23 °C。 露点为23 °C,相对湿度为100%。 海平面上的气压为1014 hPa (QNH)。

白天

今天,太阳从05:49升起,在18:32降落。 这适用于Wa Airport,世界夏令时可能有所不同。 当地时间与世界标准时间之间的时差为+0 小时。 夏令时目前正在进行中。

公司介绍

我们没有关于这个机场的公司信息。

体会

到Vliegles.nl去找飞行课程,跳伞和其他飞行体验。 浏览页面,了解Wa Airport附近所有可用的活动。 你也可以使用搜索功能来寻找你所在地附近的特定飞行课程、跳伞或其他飞行体验。

跑道

Id 标题 侧风 逆风 侧风 %
3/21 019°-199° 1 kt 2 kt 63 %

逆风成分最大的方向会被突出显示,并用于横风计算。 这并不一定意味着这个方向在使用。

乌云

1.000 ft OVC 乌云密布

温度 & 天气

温度 23 °C
露点 23 °C
相对湿度 100%
Kp-index 2 (0-9)

白天

日出
06:04
中午
12:21
日落
18:38 (11:50)

小工具

你想在你的网站上有一个关于Wa Airport的当前航空天气(METAR)的小部件吗?

显示HTML代码
报告变更